Terminal Aerodrome Forecast
Issued by NWS

Home | Current Version | Previous Version | Text Only | Print | Product List | Glossary On
Versions: 1 2 3 4 5 6 7 8 9 10 11 12 13 14 15 16 17 18 19 20 21 22 23 24 25 26 27 28 29 30
000
FTUS41 KBOX 232006 AAA
TAFMHT
TAF AMD
KMHT 232006Z 2320/2418 36015G25KT P6SM OVC015
      TEMPO 2322/2324 5SM SHRA BR OVC008
     FM240500 01011G22KT P6SM OVC008
     FM241200 33007KT P6SM OVC015
     FM241700 32008KT P6SM OVC035=

USA.gov is the U.S. government's official web portal to all federal, state and local government web resources and services.